createdAt,value
2023-02-02T00:01:29.423Z,96311.03
2023-02-02T00:03:57.219Z,96298.59
2023-02-02T00:06:27.033Z,96298.28
2023-02-02T00:08:55.609Z,96301.91
2023-02-02T00:11:22.242Z,96305.31
2023-02-02T00:13:48.911Z,96308.56
2023-02-02T00:16:36.080Z,96285.03
2023-02-02T00:19:06.795Z,96293.25
2023-02-02T00:21:33.485Z,96300.03
2023-02-02T00:24:00.130Z,96285.59
2023-02-02T00:26:26.834Z,96296.06
2023-02-02T00:28:53.920Z,96293.44
2023-02-02T00:31:20.564Z,96292.75
2023-02-02T00:33:48.978Z,96275.66
2023-02-02T00:36:16.315Z,96282.03
2023-02-02T00:38:43.391Z,96275.03
2023-02-02T00:41:10.069Z,96272.75
2023-02-02T00:43:36.671Z,96280.94
2023-02-02T00:46:03.798Z,96284.56
2023-02-02T00:48:30.590Z,96277.69
2023-02-02T00:50:58.137Z,96287.06
2023-02-02T00:53:24.954Z,96277.31
2023-02-02T00:55:51.530Z,96291.34
2023-02-02T00:58:18.114Z,96285.38
2023-02-02T01:00:44.733Z,96289.81
2023-02-02T01:03:13.298Z,96291.84
2023-02-02T01:05:39.933Z,96268.09
2023-02-02T01:08:06.583Z,96283.84
2023-02-02T01:10:34.237Z,96277.06
2023-02-02T01:13:00.896Z,96287.72
2023-02-02T01:15:27.566Z,96285.22
2023-02-02T01:17:54.065Z,96286.50
2023-02-02T01:20:20.917Z,96291.59
2023-02-02T01:22:47.659Z,96297.88
2023-02-02T01:25:14.207Z,96300.78
2023-02-02T01:27:40.887Z,96287.59
2023-02-02T01:30:08.336Z,96288.84
2023-02-02T01:32:34.871Z,96294.41
2023-02-02T01:35:01.451Z,96307.16
2023-02-02T01:37:28.022Z,96307.41
2023-02-02T01:39:54.663Z,96306.28
2023-02-02T01:42:22.856Z,96298.09
2023-02-02T01:45:04.279Z,96300.97
2023-02-02T01:47:35.995Z,96306.38
2023-02-02T01:50:03.446Z,96307.16
2023-02-02T01:52:32.707Z,96311.50
2023-02-02T01:55:04.443Z,96303.06
2023-02-02T01:57:45.509Z,96302.06
2023-02-02T02:00:14.799Z,96306.69
2023-02-02T02:02:49.198Z,96309.53
2023-02-02T02:05:21.271Z,96308.38
2023-02-02T02:07:50.206Z,96300.84
2023-02-02T02:10:18.227Z,96311.16
2023-02-02T02:12:47.013Z,96320.34
2023-02-02T02:15:32.308Z,96313.97
2023-02-02T02:18:07.031Z,96333.56
2023-02-02T02:21:19.671Z,96334.94
2023-02-02T02:24:10.930Z,96333.94
2023-02-02T02:27:14.710Z,96331.47
2023-02-02T02:30:07.741Z,96323.22
2023-02-02T02:32:46.086Z,96315.50
2023-02-02T02:35:20.194Z,96318.38
2023-02-02T02:38:00.531Z,96309.63
2023-02-02T02:40:55.781Z,96311.63
2023-02-02T02:43:35.392Z,96315.19
2023-02-02T02:46:03.725Z,96315.72
2023-02-02T02:48:30.540Z,96307.25
2023-02-02T02:51:41.896Z,96312.88
2023-02-02T02:54:08.944Z,96297.91
2023-02-02T02:57:14.015Z,96307.13
2023-02-02T02:59:49.379Z,96305.03
2023-02-02T03:02:46.439Z,96306.41
2023-02-02T03:05:17.741Z,96307.47
2023-02-02T03:08:05.669Z,96309.91
2023-02-02T03:10:34.063Z,96299.50
2023-02-02T03:13:00.660Z,96296.75
2023-02-02T03:15:27.483Z,96300.84
2023-02-02T03:17:54.229Z,96301.81
2023-02-02T03:20:20.842Z,96296.06
2023-02-02T03:22:47.502Z,96302.75
2023-02-02T03:25:14.245Z,96295.09
2023-02-02T03:27:40.814Z,96292.25
2023-02-02T03:30:10.320Z,96295.53
2023-02-02T03:32:37.902Z,96295.94
2023-02-02T03:35:05.005Z,96297.88
2023-02-02T03:37:31.641Z,96286.50
2023-02-02T03:39:58.239Z,96308.41
2023-02-02T03:42:24.769Z,96315.53
2023-02-02T03:44:51.373Z,96310.53
2023-02-02T03:47:17.906Z,96313.00
2023-02-02T03:49:44.431Z,96308.63
2023-02-02T03:52:10.990Z,96325.72
2023-02-02T03:54:37.732Z,96324.38
2023-02-02T03:57:04.304Z,96321.47
2023-02-02T03:59:30.894Z,96316.75
2023-02-02T04:01:57.549Z,96319.78
2023-02-02T04:04:24.205Z,96317.25
2023-02-02T04:06:51.709Z,96330.25
2023-02-02T04:09:18.453Z,96322.72
2023-02-02T04:11:45.099Z,96321.31
2023-02-02T04:14:11.731Z,96324.00
2023-02-02T04:16:38.383Z,96319.66
2023-02-02T04:19:05.101Z,96327.09
2023-02-02T04:21:31.944Z,96335.09
2023-02-02T04:23:58.517Z,96342.69
2023-02-02T04:26:26.279Z,96337.00
2023-02-02T04:28:53.734Z,96347.41
2023-02-02T04:31:20.728Z,96346.78
2023-02-02T04:33:47.538Z,96339.69
2023-02-02T04:36:14.387Z,96341.88
2023-02-02T04:38:40.932Z,96339.38
2023-02-02T04:41:10.101Z,96355.38
2023-02-02T04:43:39.048Z,96357.91
2023-02-02T04:46:05.876Z,96352.06
2023-02-02T04:48:32.508Z,96347.66
2023-02-02T04:51:07.021Z,96353.06
2023-02-02T04:53:33.766Z,96344.84
2023-02-02T04:56:14.437Z,96332.44
2023-02-02T04:58:41.882Z,96350.78
2023-02-02T05:01:17.255Z,96345.03
2023-02-02T05:03:44.527Z,96344.13
2023-02-02T05:06:13.090Z,96339.38
2023-02-02T05:08:43.251Z,96335.06
2023-02-02T05:11:15.203Z,96332.28
2023-02-02T05:13:47.019Z,96327.78
2023-02-02T05:16:14.099Z,96315.94
2023-02-02T05:18:41.980Z,96323.63
2023-02-02T05:21:08.893Z,96313.25
2023-02-02T05:23:35.754Z,96330.25
2023-02-02T05:26:02.331Z,96312.28
2023-02-02T05:28:29.550Z,96314.84
2023-02-02T05:30:56.220Z,96328.22
2023-02-02T05:33:22.936Z,96342.66
2023-02-02T05:35:50.081Z,96337.97
2023-02-02T05:38:16.823Z,96348.06
2023-02-02T05:40:43.493Z,96351.75
2023-02-02T05:43:10.284Z,96353.72
2023-02-02T05:45:36.901Z,96352.69
2023-02-02T05:48:03.518Z,96353.63
2023-02-02T05:50:30.277Z,96354.22
2023-02-02T05:52:57.724Z,96357.13
2023-02-02T05:55:24.686Z,96365.72
2023-02-02T05:57:51.672Z,96356.22
2023-02-02T06:00:18.805Z,96357.91
2023-02-02T06:02:45.363Z,96362.47
2023-02-02T06:05:12.076Z,96362.03
2023-02-02T06:07:38.796Z,96355.59
2023-02-02T06:10:05.899Z,96364.50
2023-02-02T06:12:32.917Z,96362.81
2023-02-02T06:14:59.583Z,96358.16
2023-02-02T06:17:26.283Z,96355.25
2023-02-02T06:19:52.897Z,96356.94
2023-02-02T06:22:19.515Z,96356.50
2023-02-02T06:24:46.093Z,96361.50
2023-02-02T06:27:12.823Z,96364.81
2023-02-02T06:29:39.533Z,96371.31
2023-02-02T06:32:06.295Z,96365.00
2023-02-02T06:34:33.216Z,96363.31
2023-02-02T06:36:59.833Z,96360.06
2023-02-02T06:39:26.413Z,96367.41
2023-02-02T06:41:53.167Z,96362.06
2023-02-02T06:44:21.043Z,96356.03
2023-02-02T06:46:47.841Z,96357.56
2023-02-02T06:49:14.434Z,96363.97
2023-02-02T06:51:41.478Z,96370.00
2023-02-02T06:54:08.133Z,96344.22
2023-02-02T06:56:34.749Z,96370.81
2023-02-02T06:59:01.376Z,96365.25
2023-02-02T07:01:28.043Z,96374.25
2023-02-02T07:03:54.706Z,96375.19
2023-02-02T07:06:27.062Z,96385.78
2023-02-02T07:08:57.644Z,96384.19
2023-02-02T07:11:30.831Z,96397.16
2023-02-02T07:13:58.180Z,96382.66
2023-02-02T07:16:24.870Z,96388.41
2023-02-02T07:18:51.445Z,96387.63
2023-02-02T07:21:21.724Z,96387.09
2023-02-02T07:23:48.658Z,96386.41
2023-02-02T07:26:17.251Z,96385.81
2023-02-02T07:28:44.228Z,96391.19
2023-02-02T07:31:19.685Z,96387.91
2023-02-02T07:33:47.605Z,96402.03
2023-02-02T07:36:16.466Z,96396.25
2023-02-02T07:38:44.151Z,96398.94
2023-02-02T07:41:10.965Z,96390.53
2023-02-02T07:43:37.523Z,96395.81
2023-02-02T07:46:10.058Z,96390.03
2023-02-02T07:48:37.660Z,96400.22
2023-02-02T07:51:06.531Z,96381.34
2023-02-02T07:53:33.420Z,96393.97
2023-02-02T07:56:15.013Z,96386.56
2023-02-02T07:58:42.426Z,96390.16
2023-02-02T08:01:11.518Z,96388.63
2023-02-02T08:03:38.882Z,96392.13
2023-02-02T08:06:29.799Z,96399.91
2023-02-02T08:08:56.695Z,96398.19
2023-02-02T08:11:25.237Z,96398.63
2023-02-02T08:13:56.757Z,96392.78
2023-02-02T08:16:25.307Z,96399.00
2023-02-02T08:18:52.397Z,96388.44
2023-02-02T08:21:19.815Z,96395.97
2023-02-02T08:23:46.743Z,96406.09
2023-02-02T08:26:27.438Z,96406.28
2023-02-02T08:28:57.186Z,96403.06
2023-02-02T08:31:30.279Z,96406.72
2023-02-02T08:33:58.656Z,96415.66
2023-02-02T08:36:27.260Z,96408.94
2023-02-02T08:38:54.030Z,96412.72
2023-02-02T08:41:23.126Z,96409.06
2023-02-02T08:43:51.131Z,96413.97
2023-02-02T08:46:20.176Z,96424.47
2023-02-02T08:48:47.873Z,96418.13
2023-02-02T08:51:16.683Z,96424.38
2023-02-02T08:53:43.521Z,96424.91
2023-02-02T08:56:17.716Z,96426.56
2023-02-02T08:58:46.868Z,96422.41
2023-02-02T09:01:16.923Z,96405.13
2023-02-02T09:03:44.454Z,96422.47
2023-02-02T09:06:13.530Z,96421.91
2023-02-02T09:08:40.774Z,96411.25
2023-02-02T09:11:10.299Z,96422.66
2023-02-02T09:13:37.818Z,96425.53
2023-02-02T09:16:06.600Z,96431.75
2023-02-02T09:18:33.391Z,96413.91
2023-02-02T09:21:01.842Z,96429.88
2023-02-02T09:23:33.127Z,96433.25
2023-02-02T09:26:19.237Z,96436.41
2023-02-02T09:29:11.552Z,96441.44
2023-02-02T09:31:38.664Z,96444.47
2023-02-02T09:34:07.915Z,96444.53
2023-02-02T09:36:35.105Z,96448.00
2023-02-02T09:39:02.073Z,96442.34
2023-02-02T09:41:31.829Z,96450.97
2023-02-02T09:44:16.986Z,96461.16
2023-02-02T09:47:02.813Z,96471.88
2023-02-02T09:49:48.919Z,96469.81
2023-02-02T09:52:30.154Z,96472.22
2023-02-02T09:55:03.477Z,96478.84
2023-02-02T09:57:37.312Z,96475.53
2023-02-02T10:00:06.027Z,96482.03
2023-02-02T10:02:39.501Z,96481.75
2023-02-02T10:05:16.918Z,96479.41
2023-02-02T10:07:48.325Z,96483.34
2023-02-02T10:10:27.736Z,96489.50
2023-02-02T10:13:06.037Z,96489.34
2023-02-02T10:16:03.634Z,96493.09
2023-02-02T10:18:35.639Z,96486.84
2023-02-02T10:21:23.574Z,96497.25
2023-02-02T10:23:50.246Z,96496.25
2023-02-02T10:26:31.253Z,96488.91
2023-02-02T10:29:17.599Z,96503.59
2023-02-02T10:31:49.413Z,96492.97
2023-02-02T10:34:34.765Z,96502.38
2023-02-02T10:37:19.707Z,96499.22
2023-02-02T10:39:55.009Z,96492.25
2023-02-02T10:42:35.865Z,96492.28
2023-02-02T10:45:10.122Z,96497.41
2023-02-02T10:47:38.054Z,96507.56
2023-02-02T10:50:21.937Z,96500.56
2023-02-02T10:53:03.133Z,96494.44
2023-02-02T10:55:35.579Z,96490.19
2023-02-02T10:58:20.905Z,96501.16
2023-02-02T11:00:53.969Z,96494.28
2023-02-02T11:03:32.666Z,96489.97
2023-02-02T11:06:20.951Z,96483.41
2023-02-02T11:08:56.752Z,96471.03
2023-02-02T11:11:32.563Z,96481.19
2023-02-02T11:14:11.404Z,96471.66
2023-02-02T11:16:44.242Z,96487.06
2023-02-02T11:19:17.005Z,96481.03
2023-02-02T11:21:49.222Z,96484.03
2023-02-02T11:24:27.359Z,96481.97
2023-02-02T11:26:57.472Z,96473.91
2023-02-02T11:29:32.207Z,96477.03
2023-02-02T11:32:17.588Z,96475.44
2023-02-02T11:34:44.227Z,96468.06
2023-02-02T11:39:53.032Z,96478.59
2023-02-02T11:42:23.069Z,96477.56
2023-02-02T11:44:58.202Z,96476.34
2023-02-02T11:47:28.719Z,96476.31
2023-02-02T11:49:58.695Z,96464.47
2023-02-02T11:52:29.603Z,96466.91
2023-02-02T11:55:09.210Z,96471.53
2023-02-02T11:57:35.920Z,96461.97
2023-02-02T12:00:08.513Z,96467.03
2023-02-02T12:02:35.346Z,96470.03
2023-02-02T12:05:14.708Z,96474.59
2023-02-02T12:07:43.746Z,96476.00
2023-02-02T12:10:25.927Z,96461.91
2023-02-02T12:13:16.935Z,96457.31
2023-02-02T12:16:02.010Z,96453.63
2023-02-02T12:18:59.975Z,96442.97
2023-02-02T12:21:35.750Z,96443.31
2023-02-02T12:24:17.617Z,96436.72
2023-02-02T12:26:55.563Z,96426.16
2023-02-02T12:29:37.906Z,96433.31
2023-02-02T12:32:28.080Z,96433.66
2023-02-02T12:35:42.384Z,96434.19
2023-02-02T12:38:30.461Z,96435.47
2023-02-02T12:41:07.715Z,96436.47
2023-02-02T12:43:47.316Z,96437.78
2023-02-02T12:46:14.604Z,96435.25
2023-02-02T12:49:07.228Z,96423.13
2023-02-02T12:51:55.546Z,96416.03
2023-02-02T12:54:45.757Z,96414.50
2023-02-02T12:57:41.594Z,96416.88
2023-02-02T13:00:43.684Z,96433.22
2023-02-02T13:03:32.883Z,96437.13
2023-02-02T13:06:10.691Z,96424.38
2023-02-02T13:08:48.720Z,96436.00
2023-02-02T13:11:32.880Z,96436.00
2023-02-02T13:14:11.262Z,96449.69
2023-02-02T13:16:44.298Z,96426.31
2023-02-02T13:19:19.390Z,96423.19
2023-02-02T13:21:48.380Z,96416.53
2023-02-02T13:24:24.671Z,96410.34
2023-02-02T13:26:51.980Z,96411.59
2023-02-02T13:29:47.886Z,96415.38
2023-02-02T13:32:36.267Z,96431.81
2023-02-02T13:35:33.320Z,96417.97
2023-02-02T13:38:18.149Z,96426.94
2023-02-02T13:40:45.004Z,96425.75
2023-02-02T13:43:11.547Z,96422.00
2023-02-02T13:45:47.311Z,96438.56
2023-02-02T13:48:25.489Z,96441.09
2023-02-02T13:51:10.361Z,96439.41
2023-02-02T13:53:39.902Z,96448.66
2023-02-02T13:56:30.997Z,96439.56
2023-02-02T13:59:49.090Z,96448.78
2023-02-02T14:02:42.117Z,96455.59
2023-02-02T14:05:37.989Z,96466.03
2023-02-02T14:08:08.385Z,96478.91
2023-02-02T14:11:05.105Z,96472.63
2023-02-02T14:14:00.517Z,96461.94
2023-02-02T14:16:32.784Z,96462.13
2023-02-02T14:19:01.169Z,96455.69
2023-02-02T14:21:33.817Z,96450.88
2023-02-02T14:24:37.210Z,96452.69
2023-02-02T14:27:10.005Z,96442.53
2023-02-02T14:29:57.416Z,96437.34
2023-02-02T14:32:24.073Z,96458.97
2023-02-02T14:34:53.630Z,96459.97
2023-02-02T14:37:34.874Z,96475.69
2023-02-02T14:40:07.320Z,96478.97
2023-02-02T14:43:11.332Z,96485.72
2023-02-02T14:45:42.283Z,96493.41
2023-02-02T14:48:19.868Z,96499.72
2023-02-02T14:51:01.752Z,96515.38
2023-02-02T14:53:35.196Z,96508.31
2023-02-02T14:56:13.504Z,96508.91
2023-02-02T14:58:45.890Z,96504.72
2023-02-02T15:01:25.159Z,96500.38
2023-02-02T15:04:00.916Z,96507.28
2023-02-02T15:06:37.176Z,96509.72
2023-02-02T15:09:33.784Z,96506.31
2023-02-02T15:12:03.071Z,96505.56
2023-02-02T15:14:35.867Z,96507.44
2023-02-02T15:17:15.646Z,96509.66
2023-02-02T15:19:47.914Z,96518.41
2023-02-02T15:22:32.068Z,96518.91
2023-02-02T15:25:04.412Z,96531.09
2023-02-02T15:27:31.868Z,96538.59
2023-02-02T15:30:04.477Z,96552.84
2023-02-02T15:32:32.060Z,96550.97
2023-02-02T15:35:03.010Z,96554.47
2023-02-02T15:37:40.325Z,96560.84
2023-02-02T15:40:16.015Z,96560.06
2023-02-02T15:42:53.036Z,96564.28
2023-02-02T15:45:32.032Z,96560.69
2023-02-02T15:48:00.130Z,96551.13
2023-02-02T15:50:27.421Z,96554.66
2023-02-02T15:52:55.372Z,96554.44
2023-02-02T15:55:35.236Z,96552.78
2023-02-02T15:58:03.036Z,96563.84
2023-02-02T16:00:34.721Z,96536.72
2023-02-02T16:03:20.053Z,96551.81
2023-02-02T16:05:56.708Z,96556.22
2023-02-02T16:08:29.814Z,96557.84
2023-02-02T16:11:23.801Z,96564.81
2023-02-02T16:14:04.116Z,96568.72
2023-02-02T16:16:33.468Z,96566.28
2023-02-02T16:19:15.098Z,96564.13
2023-02-02T16:21:47.936Z,96565.25
2023-02-02T16:24:23.242Z,96566.34
2023-02-02T16:26:53.377Z,96577.50
2023-02-02T16:29:21.094Z,96581.19
2023-02-02T16:31:49.466Z,96581.44
2023-02-02T16:34:17.088Z,96592.69
2023-02-02T16:36:43.795Z,96593.88
2023-02-02T16:39:23.239Z,96594.91
2023-02-02T16:41:50.896Z,96589.72
2023-02-02T16:44:37.425Z,96586.69
2023-02-02T16:47:07.017Z,96582.63
2023-02-02T16:49:35.497Z,96586.81
2023-02-02T16:52:10.295Z,96589.78
2023-02-02T16:54:37.718Z,96592.59
2023-02-02T16:57:05.177Z,96598.00
2023-02-02T16:59:35.823Z,96614.34
2023-02-02T17:02:27.472Z,96629.81
2023-02-02T17:05:03.288Z,96623.38
2023-02-02T17:07:33.015Z,96616.13
2023-02-02T17:10:21.374Z,96626.78
2023-02-02T17:12:48.296Z,96617.78
2023-02-02T17:15:18.134Z,96621.75
2023-02-02T17:17:47.945Z,96631.06
2023-02-02T17:20:16.231Z,96633.19
2023-02-02T17:22:46.253Z,96629.75
2023-02-02T17:25:18.171Z,96621.72
2023-02-02T17:27:45.480Z,96617.78
2023-02-02T17:30:18.143Z,96622.41
2023-02-02T17:32:44.697Z,96620.75
2023-02-02T17:35:21.100Z,96621.06
2023-02-02T17:37:48.597Z,96629.72
2023-02-02T17:40:16.675Z,96616.59
2023-02-02T17:42:45.101Z,96618.28
2023-02-02T17:45:24.427Z,96613.06
2023-02-02T17:47:51.457Z,96614.97
2023-02-02T17:50:18.591Z,96610.47
2023-02-02T17:52:46.279Z,96620.47
2023-02-02T17:55:16.103Z,96621.16
2023-02-02T17:57:42.569Z,96623.84
2023-02-02T18:00:10.647Z,96615.38
2023-02-02T18:02:37.406Z,96613.91
2023-02-02T18:05:05.000Z,96624.25
2023-02-02T18:07:31.893Z,96623.25
2023-02-02T18:09:58.396Z,96624.47
2023-02-02T18:12:24.976Z,96628.66
2023-02-02T18:14:51.940Z,96632.47
2023-02-02T18:17:18.499Z,96633.28
2023-02-02T18:19:46.741Z,96629.75
2023-02-02T18:22:13.895Z,96626.88
2023-02-02T18:24:41.150Z,96621.56
2023-02-02T18:27:08.378Z,96627.88
2023-02-02T18:29:35.490Z,96617.78
2023-02-02T18:32:02.842Z,96629.81
2023-02-02T18:34:31.604Z,96621.00
2023-02-02T18:36:58.516Z,96631.13
2023-02-02T18:39:25.112Z,96630.66
2023-02-02T18:41:51.759Z,96636.84
2023-02-02T18:44:18.402Z,96626.66
2023-02-02T18:46:44.936Z,96622.50
2023-02-02T18:49:11.911Z,96624.44
2023-02-02T18:51:38.984Z,96621.09
2023-02-02T18:54:05.567Z,96635.75
2023-02-02T18:56:32.090Z,96641.47
2023-02-02T18:58:59.780Z,96641.06
2023-02-02T19:01:26.614Z,96630.31
2023-02-02T19:03:57.114Z,96634.44
2023-02-02T19:06:42.954Z,96644.19
2023-02-02T19:09:09.526Z,96639.13
2023-02-02T19:11:44.040Z,96650.06
2023-02-02T19:14:24.682Z,96655.28
2023-02-02T19:16:52.604Z,96631.63
2023-02-02T19:19:30.074Z,96642.41
2023-02-02T19:21:58.563Z,96637.19
2023-02-02T19:24:26.808Z,96637.53
2023-02-02T19:26:53.938Z,96629.56
2023-02-02T19:29:30.348Z,96635.28
2023-02-02T19:32:02.820Z,96626.50
2023-02-02T19:34:29.967Z,96613.28
2023-02-02T19:36:56.548Z,96627.28
2023-02-02T19:39:29.088Z,96628.16
2023-02-02T19:41:59.420Z,96609.00
2023-02-02T19:44:34.099Z,96631.91
2023-02-02T19:47:02.883Z,96624.66
2023-02-02T19:49:36.134Z,96626.16
2023-02-02T19:52:08.061Z,96624.66
2023-02-02T19:54:40.395Z,96613.63
2023-02-02T19:57:13.001Z,96627.44
2023-02-02T19:59:40.916Z,96627.47
2023-02-02T20:02:34.402Z,96628.69
2023-02-02T20:05:23.951Z,96627.47
2023-02-02T20:08:19.276Z,96622.81
2023-02-02T20:10:46.181Z,96637.59
2023-02-02T20:13:18.672Z,96625.44
2023-02-02T20:15:46.351Z,96629.63
2023-02-02T20:18:44.396Z,96627.75
2023-02-02T20:21:45.685Z,96631.59
2023-02-02T20:24:18.412Z,96636.63
2023-02-02T20:26:45.721Z,96641.56
2023-02-02T20:29:22.481Z,96636.50
2023-02-02T20:31:50.929Z,96645.19
2023-02-02T20:34:26.015Z,96642.72
2023-02-02T20:37:16.010Z,96643.09
2023-02-02T20:39:51.954Z,96636.78
2023-02-02T20:42:18.463Z,96635.69
2023-02-02T20:44:45.219Z,96641.19
2023-02-02T20:47:12.531Z,96649.41
2023-02-02T20:49:39.742Z,96651.28
2023-02-02T20:52:10.632Z,96649.53
2023-02-02T20:54:38.367Z,96650.44
2023-02-02T20:57:05.648Z,96656.66
2023-02-02T20:59:32.283Z,96654.69
2023-02-02T21:01:59.376Z,96661.97
2023-02-02T21:04:26.106Z,96657.09
2023-02-02T21:06:52.725Z,96666.91
2023-02-02T21:09:19.214Z,96670.78
2023-02-02T21:11:45.965Z,96667.56
2023-02-02T21:14:12.534Z,96664.13
2023-02-02T21:16:39.090Z,96668.94
2023-02-02T21:19:05.714Z,96679.59
2023-02-02T21:21:32.288Z,96668.22
2023-02-02T21:24:00.721Z,96683.50
2023-02-02T21:26:29.830Z,96686.25
2023-02-02T21:28:58.185Z,96669.63
2023-02-02T21:31:25.125Z,96662.53
2023-02-02T21:33:53.066Z,96672.13
2023-02-02T21:36:33.278Z,96673.84
2023-02-02T21:39:10.943Z,96670.56
2023-02-02T21:41:37.547Z,96668.81
2023-02-02T21:44:15.168Z,96672.72
2023-02-02T21:46:42.219Z,96654.94
2023-02-02T21:49:35.696Z,96679.72
2023-02-02T21:52:12.423Z,96674.97
2023-02-02T21:54:40.381Z,96674.59
2023-02-02T21:57:27.795Z,96669.38
2023-02-02T21:59:56.318Z,96687.25
2023-02-02T22:02:44.891Z,96689.66
2023-02-02T22:05:38.016Z,96690.59
2023-02-02T22:08:20.921Z,96698.53
2023-02-02T22:10:48.014Z,96697.06
2023-02-02T22:13:23.923Z,96688.91
2023-02-02T22:15:52.485Z,96690.81
2023-02-02T22:18:25.041Z,96700.53
2023-02-02T22:20:54.422Z,96704.28
2023-02-02T22:23:22.939Z,96702.47
2023-02-02T22:25:52.961Z,96711.94
2023-02-02T22:28:32.759Z,96709.00
2023-02-02T22:31:00.560Z,96695.06
2023-02-02T22:33:27.243Z,96694.13
2023-02-02T22:35:54.475Z,96709.22
2023-02-02T22:38:23.558Z,96709.78
2023-02-02T22:40:51.387Z,96696.47
2023-02-02T22:43:20.023Z,96714.00
2023-02-02T22:45:47.198Z,96723.84
2023-02-02T22:48:16.571Z,96718.44
2023-02-02T22:50:43.155Z,96724.22
2023-02-02T22:53:10.000Z,96727.38
2023-02-02T22:55:36.527Z,96733.53
2023-02-02T22:58:03.136Z,96736.75
2023-02-02T23:00:32.982Z,96734.75
2023-02-02T23:02:59.749Z,96737.22
2023-02-02T23:05:27.668Z,96742.31
2023-02-02T23:07:54.960Z,96743.06
2023-02-02T23:10:25.029Z,96738.75
2023-02-02T23:12:55.157Z,96744.91
2023-02-02T23:15:21.839Z,96733.53
2023-02-02T23:17:48.793Z,96747.38
2023-02-02T23:20:16.014Z,96751.06
2023-02-02T23:22:42.682Z,96750.91
2023-02-02T23:25:10.501Z,96740.31
2023-02-02T23:27:37.692Z,96750.59
2023-02-02T23:30:05.576Z,96740.59
2023-02-02T23:32:32.055Z,96752.31
2023-02-02T23:34:58.668Z,96755.06
2023-02-02T23:37:25.313Z,96757.97
2023-02-02T23:39:51.846Z,96742.91
2023-02-02T23:42:18.763Z,96741.22
2023-02-02T23:44:45.438Z,96751.22
2023-02-02T23:47:12.195Z,96753.81
2023-02-02T23:49:39.224Z,96758.44
2023-02-02T23:52:06.498Z,96741.22
2023-02-02T23:54:33.758Z,96730.28
2023-02-02T23:57:01.320Z,96742.56
2023-02-02T23:59:27.937Z,96734.72
